Time;durP1;ratioP1;P1;durP2;ratioP2;P2;SDS_P1;SDS_P2;PMS_P1;PMS_P2;Temp;Humidity;BMP_temperature;BMP_pressure;BME280_temperature;BME280_humidity;BME280_pressure;Samples;Min_cycle;Max_cycle;Signal;HPM_P1;HPM_P2
2023/08/01 00:00:12;;;;;;;13.07;4.82;;;17.80;99.90;;;16.86;100.00;99576.59;4970191;28;20056;-77
2023/08/01 00:02:39;;;;;;;12.05;4.50;;;17.80;99.90;;;16.82;100.00;99580.53;4970183;28;20424;-77
2023/08/01 00:05:05;;;;;;;11.30;4.30;;;17.80;99.90;;;16.80;100.00;99577.16;4991946;28;20038;-76
2023/08/01 00:07:31;;;;;;;17.50;5.30;;;17.80;99.90;;;16.79;100.00;99568.31;4970762;28;22716;-77
2023/08/01 00:09:59;;;;;;;10.75;4.47;;;17.70;99.90;;;16.78;100.00;99571.13;4989808;28;20752;-77
2023/08/01 00:12:28;;;;;;;11.30;4.25;;;17.70;99.90;;;16.79;100.00;99567.50;4949178;28;20044;-77
2023/08/01 00:14:53;;;;;;;15.38;4.53;;;17.70;99.90;;;16.78;100.00;99563.13;4965206;28;20598;-77
2023/08/01 00:17:20;;;;;;;12.43;4.22;;;17.70;99.90;;;16.77;100.00;99558.81;4996495;28;20118;-77
2023/08/01 00:19:46;;;;;;;19.88;4.75;;;17.70;99.90;;;16.79;100.00;99551.53;4989790;28;20038;-76
2023/08/01 00:22:12;;;;;;;10.25;3.58;;;17.70;99.90;;;16.78;100.00;99540.06;4992846;28;20442;-77
2023/08/01 00:24:41;;;;;;;19.42;4.43;;;17.70;99.90;;;16.80;100.00;99538.16;4963030;28;20763;-76
2023/08/01 00:27:09;;;;;;;12.43;4.20;;;17.70;99.90;;;16.83;100.00;99525.56;4968033;28;20038;-77
2023/08/01 00:29:35;;;;;;;13.85;4.60;;;17.20;99.90;;;16.86;100.00;99526.09;4977684;28;20026;-77
2023/08/01 00:32:01;;;;;;;8.60;4.28;;;17.70;99.90;;;16.89;100.00;99517.00;4965812;28;20109;-77
2023/08/01 00:34:26;;;;;;;11.90;5.13;;;17.80;99.90;;;16.89;100.00;99509.03;4981159;28;20612;-77
2023/08/01 00:36:52;;;;;;;11.55;4.78;;;17.80;99.90;;;16.93;100.00;99507.75;4952187;28;20185;-77
2023/08/01 00:39:18;;;;;;;11.88;5.07;;;17.80;99.90;;;16.90;100.00;99502.75;4977072;28;20120;-77
2023/08/01 00:41:44;;;;;;;11.98;4.32;;;17.80;99.90;;;16.93;100.00;99489.16;4967171;28;20576;-77
2023/08/01 00:44:12;;;;;;;11.43;4.63;;;17.80;99.90;;;16.89;100.00;99485.97;4964416;28;20556;-77
2023/08/01 00:46:38;;;;;;;10.43;4.15;;;17.80;99.90;;;16.92;100.00;99476.84;4961833;28;20030;-77
2023/08/01 00:49:03;;;;;;;12.73;4.60;;;17.80;99.90;;;16.91;100.00;99478.69;4964280;28;20390;-77
2023/08/01 00:51:32;;;;;;;9.98;4.25;;;17.80;99.90;;;16.92;100.00;99474.19;4932021;28;20783;-77
2023/08/01 00:54:00;;;;;;;9.70;4.32;;;17.80;99.90;;;16.91;100.00;99468.03;4967994;28;20074;-76
2023/08/01 00:56:26;;;;;;;14.85;4.47;;;17.80;99.90;;;16.87;100.00;99466.66;4938671;28;20087;-77
2023/08/01 00:58:52;;;;;;;12.68;4.53;;;17.80;99.90;;;16.84;100.00;99456.28;4941657;28;20469;-77
2023/08/01 01:01:18;;;;;;;14.43;5.00;;;17.80;99.90;;;16.87;100.00;99457.81;4956872;28;20027;-76
2023/08/01 01:03:44;;;;;;;16.25;4.60;;;17.80;99.90;;;16.88;100.00;99449.69;4964017;28;20048;-76
2023/08/01 01:06:22;;;;;;;10.55;4.30;;;17.70;99.90;;;16.89;100.00;99446.06;4944591;28;20651;-77
2023/08/01 01:08:48;;;;;;;15.90;4.63;;;17.80;99.90;;;16.90;100.00;99434.44;4969463;28;20041;-77
2023/08/01 01:11:14;;;;;;;21.45;4.63;;;17.80;99.90;;;16.90;100.00;99431.78;4979268;28;20058;-77
2023/08/01 01:13:40;;;;;;;6.65;3.97;;;17.80;99.90;;;16.85;100.00;99425.25;4960322;28;20409;-77
2023/08/01 01:16:06;;;;;;;8.52;4.22;;;17.80;99.90;;;16.88;100.00;99416.97;4976495;28;20678;-77
2023/08/01 01:18:31;;;;;;;12.32;4.18;;;17.70;99.90;;;16.86;100.00;99418.94;4959328;28;20049;-77
2023/08/01 01:20:59;;;;;;;12.88;4.30;;;17.80;99.90;;;16.87;100.00;99415.28;4975348;28;20710;-77
2023/08/01 01:23:27;;;;;;;7.95;3.90;;;17.70;99.90;;;16.76;100.00;99408.28;4960021;28;20045;-77
2023/08/01 01:25:54;;;;;;;12.57;4.82;;;17.70;99.90;;;16.69;100.00;99399.19;4948069;28;20038;-77
2023/08/01 01:28:21;;;;;;;13.95;4.72;;;17.70;99.90;;;16.77;100.00;99396.66;4976239;28;20037;-77
2023/08/01 01:30:49;;;;;;;12.57;4.60;;;17.70;99.90;;;16.72;100.00;99398.94;4950882;28;20044;-77
2023/08/01 01:33:16;;;;;;;8.00;4.35;;;17.70;99.90;;;16.77;100.00;99397.50;4968622;28;20038;-77
2023/08/01 01:35:41;;;;;;;12.55;4.55;;;17.70;99.90;;;16.73;100.00;99382.00;4955113;28;20035;-76
2023/08/01 01:38:09;;;;;;;13.00;4.32;;;17.70;99.90;;;16.73;100.00;99379.34;4938781;28;20084;-77
2023/08/01 01:40:34;;;;;;;10.73;4.53;;;17.70;99.90;;;16.71;100.00;99374.16;4930164;28;20034;-76
2023/08/01 01:43:01;;;;;;;10.73;4.35;;;17.70;99.90;;;16.74;100.00;99371.22;4943028;28;20502;-75
2023/08/01 01:45:27;;;;;;;13.43;4.85;;;17.70;99.90;;;16.74;100.00;99362.41;4962692;28;20088;-76
2023/08/01 01:47:55;;;;;;;13.77;4.57;;;17.70;99.90;;;16.72;100.00;99364.38;4944273;28;20065;-77
2023/08/01 01:50:21;;;;;;;9.02;4.45;;;17.60;99.90;;;16.61;100.00;99349.44;4957819;28;20513;-77
2023/08/01 01:52:47;;;;;;;10.18;4.40;;;17.60;99.90;;;16.63;100.00;99344.81;4962591;28;20125;-77
2023/08/01 01:55:13;;;;;;;10.82;4.32;;;17.60;99.90;;;16.60;100.00;99345.09;4959252;28;20030;-77
2023/08/01 01:57:38;;;;;;;8.13;4.28;;;17.60;99.90;;;16.67;100.00;99334.72;4925505;28;20039;-74
2023/08/01 02:00:05;;;;;;;9.38;3.70;;;17.60;99.90;;;16.59;100.00;99328.31;4927492;28;20429;-76
2023/08/01 02:02:31;;;;;;;7.78;4.35;;;17.60;99.90;;;16.63;100.00;99328.88;4955644;28;20042;-75
2023/08/01 02:05:00;;;;;;;9.77;4.25;;;17.60;99.90;;;16.64;100.00;99322.56;4963921;28;20061;-75
2023/08/01 02:07:26;;;;;;;10.88;4.35;;;17.60;99.90;;;16.67;100.00;99322.25;4975555;28;20030;-75
2023/08/01 02:09:52;;;;;;;16.85;3.88;;;17.60;99.90;;;16.69;100.00;99320.31;4957420;28;20514;-75
2023/08/01 02:12:17;;;;;;;7.60;3.95;;;17.60;99.90;;;16.67;100.00;99324.09;4974190;28;20154;-75
2023/08/01 02:14:43;;;;;;;7.70;4.03;;;17.60;99.90;;;16.67;100.00;99319.59;4983129;28;20108;-75
2023/08/01 02:17:11;;;;;;;11.00;3.72;;;17.60;99.90;;;16.70;100.00;99315.84;4950774;28;20112;-75
2023/08/01 02:19:37;;;;;;;9.32;3.97;;;17.60;99.90;;;16.68;100.00;99312.50;4975114;28;20042;-76
2023/08/01 02:22:03;;;;;;;12.48;4.22;;;17.60;99.90;;;16.69;100.00;99311.50;4973912;28;20046;-75
2023/08/01 02:24:29;;;;;;;14.48;4.50;;;17.60;99.90;;;16.64;100.00;99303.13;4977435;28;20043;-75
2023/08/01 02:26:54;;;;;;;9.07;3.92;;;17.60;99.90;;;16.68;100.00;99302.69;4995948;28;20470;-76
2023/08/01 02:29:20;;;;;;;8.45;4.03;;;17.60;99.90;;;16.64;100.00;99305.78;4951164;28;20092;-75
2023/08/01 02:31:46;;;;;;;7.20;3.60;;;17.60;99.90;;;16.61;100.00;99297.13;4964722;28;20129;-75
2023/08/01 02:34:11;;;;;;;9.75;3.85;;;17.60;99.90;;;16.64;100.00;99296.00;4969317;28;20128;-76
2023/08/01 02:36:37;;;;;;;;;;;17.60;99.90;;;16.51;100.00;99292.81;4960331;28;20031;-76
2023/08/01 02:39:03;;;;;;;5.72;3.30;;;17.50;99.90;;;16.53;100.00;99288.22;4965108;28;19929;-75
2023/08/01 02:41:31;;;;;;;8.70;3.58;;;17.50;99.90;;;16.58;100.00;99285.94;4956558;28;20058;-75
2023/08/01 02:43:57;;;;;;;9.02;3.78;;;17.50;99.90;;;16.56;100.00;99279.94;4967734;28;20046;-75
2023/08/01 02:46:22;;;;;;;10.45;3.95;;;17.50;99.90;;;16.61;100.00;99275.03;4965646;28;20121;-75
2023/08/01 02:48:48;;;;;;;7.18;3.50;;;17.60;99.90;;;16.61;100.00;99269.72;4942180;28;20159;-76
2023/08/01 02:51:14;;;;;;;8.90;4.18;;;17.50;99.90;;;16.58;100.00;99270.00;4935932;28;20118;-75
2023/08/01 02:53:41;;;;;;;9.13;4.07;;;17.50;99.90;;;16.55;100.00;99267.66;4934722;28;20573;-76
2023/08/01 02:56:09;;;;;;;12.07;4.35;;;17.50;99.90;;;16.56;100.00;99264.00;4981082;28;20129;-75
2023/08/01 02:58:36;;;;;;;7.57;4.03;;;17.50;99.90;;;16.56;100.00;99267.47;4990189;28;20041;-75
2023/08/01 03:01:06;;;;;;;17.73;5.50;;;17.50;99.90;;;16.59;100.00;99264.53;4928700;28;20043;-75
2023/08/01 03:03:32;;;;;;;12.95;4.82;;;17.50;99.90;;;16.57;100.00;99263.03;4945924;28;20542;-76
2023/08/01 03:05:59;;;;;;;13.90;5.25;;;17.40;99.90;;;16.61;100.00;99262.59;4933519;28;20045;-76
2023/08/01 03:08:25;;;;;;;12.88;5.20;;;17.50;99.90;;;16.58;100.00;99254.88;4971916;28;20065;-76
2023/08/01 03:10:51;;;;;;;15.15;4.65;;;17.50;99.90;;;16.59;100.00;99253.09;4934503;28;20121;-76
2023/08/01 03:13:17;;;;;;;15.23;5.05;;;17.50;99.90;;;16.58;100.00;99246.09;4963813;28;20113;-76
2023/08/01 03:15:43;;;;;;;9.80;4.85;;;17.50;99.90;;;16.48;100.00;99243.47;4976141;28;20464;-76
2023/08/01 03:18:08;;;;;;;9.60;5.00;;;17.50;99.90;;;16.55;100.00;99241.06;4963649;28;20030;-75
2023/08/01 03:20:34;;;;;;;11.27;4.40;;;17.50;99.90;;;16.55;100.00;99236.59;4971265;28;20076;-76
2023/08/01 03:23:00;;;;;;;14.73;5.15;;;17.50;99.90;;;16.54;100.00;99240.25;4980578;28;20057;-76
2023/08/01 03:25:26;;;;;;;10.75;4.90;;;17.50;99.90;;;16.52;100.00;99230.72;4962241;28;20034;-76
2023/08/01 03:27:52;;;;;;;10.23;4.90;;;17.50;99.90;;;16.51;100.00;99224.56;4967526;28;20420;-76
2023/08/01 03:30:19;;;;;;;16.52;5.10;;;17.50;99.90;;;16.56;100.00;99226.78;4945949;28;20701;-75
2023/08/01 03:32:47;;;;;;;12.65;4.82;;;17.50;99.90;;;16.57;100.00;99226.66;4947343;28;20060;-75
2023/08/01 03:35:13;;;;;;;13.90;5.28;;;17.50;99.90;;;16.57;100.00;99223.16;4934620;28;20483;-76
2023/08/01 03:37:40;;;;;;;10.45;4.60;;;17.50;99.90;;;16.52;100.00;99215.63;4948727;28;20043;-75
2023/08/01 03:40:10;;;;;;;10.25;4.25;;;17.50;99.90;;;16.56;100.00;99216.16;4952803;28;20072;-76
2023/08/01 03:42:37;;;;;;;18.63;4.53;;;17.50;99.90;;;16.52;100.00;99215.63;4965495;28;20073;-75
2023/08/01 03:45:05;;;;;;;13.45;4.50;;;17.50;99.90;;;16.55;100.00;99209.19;4949600;28;20417;-75
2023/08/01 03:47:31;;;;;;;12.35;5.00;;;17.50;99.90;;;16.58;100.00;99208.88;4974073;28;20100;-75
2023/08/01 03:49:56;;;;;;;10.45;4.70;;;17.50;99.90;;;16.58;100.00;99200.91;4981677;28;20046;-76
2023/08/01 03:52:24;;;;;;;13.35;4.53;;;17.50;99.90;;;16.56;100.00;99195.72;4969346;28;20058;-75
2023/08/01 03:54:54;;;;;;;13.50;4.78;;;17.50;99.90;;;16.61;100.00;99203.28;4965350;28;20034;-76
2023/08/01 03:57:20;;;;;;;12.32;4.82;;;17.50;99.90;;;16.60;100.00;99204.25;4980811;28;20523;-77
2023/08/01 03:59:46;;;;;;;15.20;5.25;;;17.50;99.90;;;16.61;100.00;99198.81;4992407;28;20042;-76
2023/08/01 04:02:12;;;;;;;10.00;5.15;;;17.50;99.90;;;16.65;100.00;99209.13;4966478;28;20042;-75
2023/08/01 04:04:38;;;;;;;13.55;5.10;;;17.60;99.90;;;16.68;100.00;99203.53;4965091;28;20030;-75
2023/08/01 04:07:06;;;;;;;11.85;5.03;;;17.60;99.90;;;16.67;100.00;99207.16;4970370;28;20117;-76
2023/08/01 04:09:32;;;;;;;10.60;5.75;;;17.60;99.90;;;16.70;100.00;99198.91;4991445;28;20666;-75
2023/08/01 04:11:58;;;;;;;20.45;5.78;;;17.60;99.90;;;16.72;100.00;99194.28;4991949;28;20034;-75
2023/08/01 04:14:23;;;;;;;15.65;5.38;;;17.60;99.90;;;16.69;100.00;99195.41;4991023;28;20642;-76
2023/08/01 04:16:49;;;;;;;12.60;5.63;;;17.60;99.90;;;16.73;100.00;99193.28;4968287;28;26463;-76
2023/08/01 04:19:15;;;;;;;14.90;4.82;;;17.70;99.90;;;16.75;100.00;99199.28;4982565;28;20113;-76
2023/08/01 04:21:41;;;;;;;14.15;5.30;;;17.70;99.90;;;16.76;100.00;99196.50;4964101;28;21210;-76
2023/08/01 04:24:07;;;;;;;18.80;5.68;;;17.70;99.90;;;16.76;100.00;99192.97;4960542;28;20052;-76
2023/08/01 04:26:32;;;;;;;13.80;5.35;;;17.70;99.90;;;16.80;100.00;99203.22;4949206;28;20142;-76
2023/08/01 04:29:00;;;;;;;12.30;4.80;;;17.70;99.90;;;16.80;100.00;99191.72;4968009;28;20042;-76
2023/08/01 04:31:26;;;;;;;7.75;4.00;;;17.70;99.90;;;16.79;100.00;99201.50;4951731;28;20061;-74
2023/08/01 04:33:52;;;;;;;11.75;4.65;;;17.70;99.90;;;16.83;100.00;99188.78;4979561;28;20120;-75
2023/08/01 04:36:17;;;;;;;11.48;4.57;;;17.70;99.90;;;16.84;100.00;99179.00;4982018;28;20030;-75
2023/08/01 04:38:43;;;;;;;8.95;4.50;;;17.80;99.90;;;16.85;100.00;99181.50;4958803;28;20153;-75
2023/08/01 04:41:09;;;;;;;10.25;4.10;;;17.70;99.90;;;16.89;100.00;99180.22;4961662;28;20085;-75
2023/08/01 04:43:37;;;;;;;10.77;4.60;;;17.80;99.90;;;16.91;100.00;99172.94;4932179;28;20366;-75
2023/08/01 04:46:03;;;;;;;9.30;3.97;;;17.80;99.90;;;16.95;100.00;99169.00;4951662;28;20090;-76
2023/08/01 04:48:28;;;;;;;8.32;3.72;;;17.90;99.90;;;16.97;100.00;99172.31;4954722;28;20053;-75
2023/08/01 04:50:54;;;;;;;17.10;3.95;;;17.80;99.90;;;16.95;100.00;99160.16;4988627;28;20042;-75
2023/08/01 04:53:20;;;;;;;10.15;4.45;;;17.90;99.90;;;16.95;100.00;99158.38;4936664;28;20550;-76
2023/08/01 04:55:46;;;;;;;9.15;3.75;;;17.90;99.90;;;16.99;100.00;99164.19;4981993;28;20068;-76
2023/08/01 04:58:11;;;;;;;;;;;17.90;99.90;;;17.04;100.00;99161.06;4966195;28;20061;-76
2023/08/01 05:00:41;;;;;;;8.90;3.50;;;17.90;99.90;;;17.09;100.00;99164.97;4939583;28;19913;-76
2023/08/01 05:03:06;;;;;;;9.23;4.00;;;18.00;99.90;;;17.19;100.00;99175.50;4946668;28;20039;-76
2023/08/01 05:05:32;;;;;;;9.90;3.72;;;18.10;99.90;;;17.32;100.00;99165.34;4947763;28;20104;-76
2023/08/01 05:07:58;;;;;;;7.43;3.72;;;18.10;99.90;;;17.45;100.00;99164.09;4950637;28;20042;-76
2023/08/01 05:10:24;;;;;;;9.90;3.70;;;18.30;99.90;;;17.51;100.00;99164.31;4992901;28;20030;-76
2023/08/01 05:12:50;;;;;;;9.65;3.50;;;18.30;99.90;;;17.57;100.00;99170.88;4970944;28;20113;-76
2023/08/01 05:15:16;;;;;;;11.25;3.70;;;18.40;99.90;;;17.55;100.00;99168.34;4957340;28;20101;-77
2023/08/01 05:17:42;;;;;;;6.47;3.20;;;18.40;99.90;;;17.51;100.00;99168.81;4950028;28;20457;-76
2023/08/01 05:20:11;;;;;;;8.15;3.33;;;18.30;99.90;;;17.49;100.00;99165.47;4960357;28;20041;-76
2023/08/01 05:22:36;;;;;;;7.40;3.10;;;18.40;99.90;;;17.51;100.00;99163.50;4973595;28;20480;-76
2023/08/01 05:25:04;;;;;;;7.28;3.10;;;18.40;99.90;;;17.49;100.00;99166.31;4957244;28;20117;-76
2023/08/01 05:27:30;;;;;;;7.70;3.33;;;18.40;99.90;;;17.54;100.00;99165.88;4956311;28;20038;-76
2023/08/01 05:29:56;;;;;;;10.90;2.90;;;18.40;99.90;;;17.56;100.00;99166.56;4973603;28;20034;-76
2023/08/01 05:32:24;;;;;;;9.18;3.55;;;18.40;99.90;;;17.56;100.00;99166.56;4954466;28;20517;-77
2023/08/01 05:34:50;;;;;;;5.80;3.35;;;18.40;99.90;;;17.59;100.00;99156.41;4980481;28;20113;-78
2023/08/01 05:37:15;;;;;;;5.05;2.92;;;18.50;99.90;;;17.62;100.00;99153.47;4967499;28;20185;-77
2023/08/01 05:39:41;;;;;;;6.65;2.70;;;18.40;99.90;;;17.65;100.00;99159.47;4946964;28;20132;-76
2023/08/01 05:42:10;;;;;;;5.85;3.03;;;18.50;99.90;;;17.69;100.00;99156.34;4932925;28;20124;-77
2023/08/01 05:44:36;;;;;;;7.95;3.00;;;18.60;99.90;;;17.73;100.00;99156.84;4940454;28;20034;-77
2023/08/01 05:47:02;;;;;;;14.52;3.47;;;18.50;99.90;;;17.72;100.00;99156.00;4964313;28;20052;-76
2023/08/01 05:49:29;;;;;;;7.15;2.90;;;18.60;99.90;;;17.87;100.00;99144.84;4939969;28;20125;-77
2023/08/01 05:51:55;;;;;;;6.03;2.70;;;18.70;99.90;;;17.96;100.00;99147.38;4962327;28;20554;-77
2023/08/01 05:54:21;;;;;;;6.35;2.75;;;18.70;99.90;;;18.03;100.00;99153.75;4962536;28;20041;-77
2023/08/01 05:56:46;;;;;;;8.40;2.60;;;18.80;99.90;;;18.09;100.00;99146.94;4965595;28;20049;-77
2023/08/01 05:59:12;;;;;;;5.18;2.65;;;18.90;99.90;;;18.12;100.00;99149.31;4962054;28;20394;-76
2023/08/01 06:01:38;;;;;;;6.70;3.13;;;18.90;99.90;;;18.16;100.00;99148.00;4949920;28;20092;-77
2023/08/01 06:04:04;;;;;;;6.45;2.75;;;18.90;99.90;;;18.15;100.00;99146.31;4947301;28;20044;-77
2023/08/01 06:06:30;;;;;;;6.63;2.50;;;19.00;99.90;;;18.12;100.00;99146.66;4972837;28;20042;-77
2023/08/01 06:08:56;;;;;;;5.43;2.67;;;18.90;99.90;;;18.09;100.00;99151.44;4955079;28;20085;-77
2023/08/01 06:11:24;;;;;;;7.00;2.80;;;18.90;99.90;;;18.01;100.00;99144.22;4971137;28;20049;-77
2023/08/01 06:13:49;;;;;;;7.03;3.03;;;18.90;99.90;;;17.94;100.00;99153.84;4928351;28;20053;-77
2023/08/01 06:16:15;;;;;;;9.30;3.00;;;18.80;99.90;;;17.86;100.00;99159.13;4927035;28;20031;-76
2023/08/01 06:18:41;;;;;;;8.00;2.53;;;18.70;99.90;;;17.73;100.00;99157.69;4937312;28;20034;-77
2023/08/01 06:21:07;;;;;;;6.97;2.50;;;18.70;99.90;;;17.67;100.00;99150.34;4928103;28;20575;-76
2023/08/01 06:23:33;;;;;;;7.07;2.83;;;18.60;99.90;;;17.67;100.00;99155.66;4948832;28;20026;-77
2023/08/01 06:26:06;;;;;;;7.13;2.58;;;18.60;99.90;;;17.65;100.00;99152.31;4909543;28;20138;-78
2023/08/01 06:28:31;;;;;;;5.28;2.80;;;18.60;99.90;;;17.66;100.00;99151.31;4944591;28;20058;-76
2023/08/01 06:30:57;;;;;;;6.45;3.00;;;18.60;99.90;;;17.66;100.00;99148.63;4936343;28;20121;-77
2023/08/01 06:33:23;;;;;;;6.55;2.20;;;18.60;99.90;;;17.68;100.00;99146.66;4942973;28;20055;-77
2023/08/01 06:35:51;;;;;;;5.72;2.47;;;18.60;99.90;;;17.71;100.00;99148.16;4925281;28;20072;-77
2023/08/01 06:38:19;;;;;;;7.45;2.72;;;18.60;99.90;;;17.76;100.00;99148.56;4944347;28;20104;-77
2023/08/01 06:40:45;;;;;;;7.30;2.65;;;18.60;99.90;;;17.75;100.00;99142.41;4941985;28;20136;-76
2023/08/01 06:43:10;;;;;;;6.40;2.60;;;18.60;99.90;;;17.78;100.00;99141.25;4937237;28;20121;-76
2023/08/01 06:45:36;;;;;;;4.93;2.25;;;18.70;99.90;;;17.79;100.00;99146.41;4961176;28;20130;-76
2023/08/01 06:48:02;;;;;;;6.97;2.58;;;18.70;99.90;;;17.89;100.00;99153.50;4955029;28;20070;-77
2023/08/01 06:50:28;;;;;;;6.43;2.53;;;18.70;99.90;;;17.92;100.00;99156.66;4946745;28;20042;-77
2023/08/01 06:53:01;;;;;;;5.03;2.00;;;18.70;99.90;;;17.93;100.00;99155.69;4974133;28;20052;-77
2023/08/01 06:55:27;;;;;;;4.47;2.35;;;18.80;99.90;;;17.90;100.00;99153.31;4982175;28;20034;-77
2023/08/01 06:57:53;;;;;;;6.82;2.58;;;18.70;99.90;;;17.87;100.00;99158.97;4970658;28;20403;-76
2023/08/01 07:00:19;;;;;;;5.45;2.40;;;18.70;99.90;;;17.89;100.00;99157.00;4988490;28;20413;-77
2023/08/01 07:02:45;;;;;;;4.57;2.33;;;18.70;99.90;;;17.90;100.00;99160.47;4968921;28;20029;-77
2023/08/01 07:05:16;;;;;;;4.57;2.60;;;18.80;99.90;;;17.93;100.00;99157.53;4948623;28;20109;-77
2023/08/01 07:07:41;;;;;;;3.17;2.03;;;18.80;99.90;;;18.00;100.00;99162.06;4964654;28;20034;-77
2023/08/01 07:10:08;;;;;;;6.35;2.28;;;18.90;99.90;;;18.10;100.00;99153.09;4982868;28;20129;-77
2023/08/01 07:12:34;;;;;;;3.70;2.40;;;18.90;99.90;;;18.19;100.00;99153.00;4966596;28;20528;-77
2023/08/01 07:14:59;;;;;;;4.22;2.28;;;19.00;99.90;;;18.27;100.00;99162.84;4957132;28;20121;-77
2023/08/01 07:17:33;;;;;;;3.78;2.33;;;19.10;99.90;;;18.35;100.00;99160.22;4957918;28;20034;-77
2023/08/01 07:19:59;;;;;;;9.15;2.60;;;19.10;99.90;;;18.41;100.00;99158.78;4942586;28;20108;-77
2023/08/01 07:22:24;;;;;;;4.25;1.98;;;19.20;99.90;;;18.41;100.00;99154.25;4982044;28;20038;-76
2023/08/01 07:24:54;;;;;;;4.80;2.22;;;19.20;99.90;;;18.53;100.00;99160.16;4973875;28;20213;-77
2023/08/01 07:27:23;;;;;;;4.63;2.22;;;19.30;99.90;;;18.59;100.00;99164.81;4972279;28;20111;-77
2023/08/01 07:29:48;;;;;;;5.70;2.20;;;19.40;99.90;;;18.64;100.00;99167.03;4974544;28;20037;-77
2023/08/01 07:32:15;;;;;;;7.15;2.83;;;19.40;99.90;;;18.72;100.00;99152.88;4974429;28;20113;-77
2023/08/01 07:34:40;;;;;;;2.90;2.33;;;19.50;99.90;;;18.73;100.00;99157.22;4969022;28;20046;-77
2023/08/01 07:37:06;;;;;;;4.07;2.40;;;19.50;99.90;;;18.91;100.00;99155.28;4974479;28;20139;-79
2023/08/01 07:39:34;;;;;;;9.50;2.47;;;19.60;99.90;;;19.07;100.00;99149.16;4985223;28;20473;-77
2023/08/01 07:42:03;;;;;;;8.75;2.25;;;19.80;99.90;;;19.17;100.00;99147.16;4963583;28;20434;-78
2023/08/01 07:44:29;;;;;;;5.30;2.50;;;19.90;99.90;;;19.26;100.00;99154.19;4943436;28;20605;-78
2023/08/01 07:46:54;;;;;;;4.78;2.53;;;19.90;99.90;;;19.27;100.00;99144.34;4968221;28;20041;-77
2023/08/01 07:49:20;;;;;;;8.85;2.70;;;20.00;99.90;;;19.18;100.00;99153.31;4970611;28;20034;-77
2023/08/01 07:51:46;;;;;;;5.15;2.38;;;19.90;99.90;;;19.16;99.88;99150.00;4940321;28;20125;-77
2023/08/01 07:54:11;;;;;;;6.78;2.17;;;19.90;99.90;;;19.15;100.00;99153.66;4981456;28;20065;-77
2023/08/01 07:56:39;;;;;;;5.68;2.80;;;19.90;99.90;;;19.15;100.00;99151.00;4983428;28;20621;-77
2023/08/01 07:59:08;;;;;;;7.13;2.10;;;19.90;99.90;;;19.10;100.00;99150.66;4941522;28;20045;-77
2023/08/01 08:01:34;;;;;;;6.85;2.63;;;19.90;99.90;;;19.10;99.92;99162.16;4914921;28;20042;-76
2023/08/01 08:04:00;;;;;;;3.65;2.28;;;19.90;99.90;;;19.07;100.00;99159.84;4980305;28;20033;-77
2023/08/01 08:06:25;;;;;;;5.47;2.33;;;19.90;99.90;;;19.12;100.00;99152.16;4956169;28;20086;-77
2023/08/01 08:08:51;;;;;;;4.18;2.40;;;19.90;99.90;;;19.12;100.00;99154.00;4946606;28;20121;-77
2023/08/01 08:11:23;;;;;;;4.70;1.90;;;19.90;99.90;;;19.06;99.71;99150.16;4964627;28;20109;-78
2023/08/01 08:13:49;;;;;;;2.58;1.95;;;19.90;99.90;;;19.10;100.00;99142.66;4994008;28;20029;-77
2023/08/01 08:16:14;;;;;;;6.45;1.88;;;19.90;99.90;;;19.13;100.00;99150.31;4977498;28;20042;-77
2023/08/01 08:18:41;;;;;;;3.28;2.28;;;19.90;99.90;;;19.12;100.00;99151.34;4992217;28;20035;-77
2023/08/01 08:21:07;;;;;;;5.13;1.90;;;19.90;99.90;;;19.07;99.91;99143.84;4964031;28;20043;-77
2023/08/01 08:23:40;;;;;;;3.47;2.10;;;19.90;99.90;;;19.04;99.93;99144.97;4976811;28;20037;-77
2023/08/01 08:26:06;;;;;;;2.45;1.67;;;19.80;99.90;;;18.97;99.52;99135.97;4987062;28;20468;-76
2023/08/01 08:28:34;;;;;;;5.60;1.83;;;19.80;99.90;;;18.94;99.61;99141.66;4968384;28;20074;-79
2023/08/01 08:31:06;;;;;;;7.80;1.77;;;19.70;99.90;;;18.87;99.12;99156.63;4951676;28;20035;-79
2023/08/01 08:33:32;;;;;;;6.88;2.00;;;19.70;99.90;;;18.90;98.95;99147.44;4981892;28;20033;-78
2023/08/01 08:35:58;;;;;;;6.10;1.98;;;19.80;99.90;;;19.00;99.40;99145.47;4971264;28;20551;-78
2023/08/01 08:38:24;;;;;;;4.13;2.30;;;19.70;99.90;;;19.02;100.00;99149.63;4969612;28;20037;-79
2023/08/01 08:41:13;;;;;;;8.20;1.88;;;19.80;99.90;;;18.99;99.82;99149.16;4972845;28;20031;-79
2023/08/01 08:43:44;;;;;;;2.78;1.63;;;19.80;99.90;;;18.98;99.34;99145.63;4975609;28;20048;-79
2023/08/01 08:46:12;;;;;;;4.22;2.13;;;19.80;99.90;;;19.02;98.82;99141.63;4984102;28;20026;-77
2023/08/01 08:48:40;;;;;;;4.28;2.05;;;19.80;99.90;;;19.01;98.25;99142.66;4957524;28;20054;-77
2023/08/01 08:51:16;;;;;;;3.75;1.60;;;19.80;99.90;;;19.02;97.36;99146.97;4982971;28;20108;-78
2023/08/01 08:53:44;;;;;;;5.50;1.90;;;19.80;99.90;;;18.99;96.91;99146.47;4992245;28;20178;-77
2023/08/01 08:56:16;;;;;;;2.42;1.75;;;19.70;99.90;;;18.90;96.84;99156.31;4953464;28;20042;-77
2023/08/01 08:58:44;;;;;;;6.03;2.10;;;19.70;99.90;;;18.83;96.73;99149.94;4965656;28;21095;-77
2023/08/01 09:01:10;;;;;;;2.78;1.70;;;19.60;99.90;;;18.74;96.47;99138.38;4981313;28;20821;-78
2023/08/01 09:03:36;;;;;;;7.03;2.03;;;19.60;99.90;;;18.72;97.10;99139.53;4964592;28;20026;-77
2023/08/01 09:06:16;;;;;;;5.15;1.95;;;19.50;99.90;;;18.60;97.79;99139.84;4969738;28;20037;-77
2023/08/01 09:08:54;;;;;;;5.57;2.20;;;19.50;99.90;;;18.59;98.13;99143.50;4963395;28;20249;-77
2023/08/01 09:11:20;;;;;;;2.60;2.03;;;19.40;99.90;;;18.69;98.71;99145.22;4991692;28;20041;-78
2023/08/01 09:13:51;;;;;;;3.45;2.10;;;19.50;99.90;;;18.79;98.00;99145.91;4966448;28;20030;-77
2023/08/01 09:16:16;;;;;;;3.97;2.28;;;19.50;99.90;;;18.83;97.70;99133.94;4969672;28;20050;-78
2023/08/01 09:18:57;;;;;;;5.60;2.22;;;19.60;99.90;;;18.78;97.06;99138.94;4992861;28;20026;-77
2023/08/01 09:21:23;;;;;;;6.93;2.47;;;19.50;99.90;;;18.75;97.06;99136.56;4968122;28;20042;-77
2023/08/01 09:23:50;;;;;;;4.13;2.50;;;19.50;99.90;;;18.65;96.66;99139.38;4966760;28;20027;-78
2023/08/01 09:26:30;;;;;;;4.50;2.17;;;19.40;99.90;;;18.56;97.12;99143.00;4965987;28;20680;-78
2023/08/01 09:29:04;;;;;;;3.75;2.22;;;19.40;99.90;;;18.54;97.68;99153.00;4943973;28;20052;-78
2023/08/01 09:31:36;;;;;;;5.03;2.60;;;19.30;99.90;;;18.50;97.89;99136.47;4963039;28;20097;-78
2023/08/01 09:34:17;;;;;;;4.35;2.53;;;19.30;99.90;;;18.60;98.67;99139.03;5000937;28;20422;-78
2023/08/01 09:36:46;;;;;;;4.07;2.63;;;19.40;99.90;;;18.78;99.10;99138.94;4995212;28;20050;-78
2023/08/01 09:39:21;;;;;;;3.60;2.70;;;19.50;99.90;;;18.93;98.46;99144.47;4925943;28;20066;-78
2023/08/01 09:41:59;;;;;;;6.10;2.65;;;19.60;99.90;;;19.08;98.39;99144.66;4966111;28;20125;-78
2023/08/01 09:44:29;;;;;;;3.20;1.95;;;19.70;99.90;;;19.11;98.04;99141.66;4986928;28;20038;-77
2023/08/01 09:47:10;;;;;;;5.10;2.33;;;19.80;99.90;;;19.18;97.16;99145.31;4998136;28;20030;-78
2023/08/01 09:49:47;;;;;;;4.38;2.72;;;19.80;99.90;;;19.19;97.13;99144.34;4975991;28;20112;-77
2023/08/01 09:52:35;;;;;;;4.20;2.30;;;19.90;99.90;;;19.17;97.01;99146.34;4996082;28;20100;-79
2023/08/01 09:55:01;;;;;;;3.78;2.38;;;19.90;99.90;;;19.17;97.28;99143.66;4938206;28;20172;-78
2023/08/01 09:57:42;;;;;;;2.75;1.80;;;19.90;99.90;;;19.12;97.63;99154.00;4993728;28;20036;-77
2023/08/01 10:00:09;;;;;;;4.45;2.20;;;19.90;99.90;;;19.21;97.59;99153.00;4999134;28;20208;-77
2023/08/01 10:02:42;;;;;;;3.10;1.90;;;19.90;99.90;;;19.26;97.37;99150.66;4974529;28;20445;-77
2023/08/01 10:05:12;;;;;;;4.53;2.13;;;19.90;99.90;;;19.20;96.42;99149.50;4956265;28;20035;-78
2023/08/01 10:07:44;;;;;;;4.22;1.85;;;19.90;99.90;;;19.15;95.66;99148.34;4984736;28;20038;-77
2023/08/01 10:10:11;;;;;;;4.05;1.92;;;19.90;99.90;;;19.13;95.52;99150.31;4951397;28;20178;-77
2023/08/01 10:12:42;;;;;;;4.90;1.95;;;19.80;99.90;;;19.08;95.90;99144.66;4975244;28;20038;-78